Time;durP1;ratioP1;P1;durP2;ratioP2;P2;SDS_P1;SDS_P2;PMS_P1;PMS_P2;Temp;Humidity;BMP_temperature;BMP_pressure;BME280_temperature;BME280_humidity;BME280_pressure;Samples;Min_cycle;Max_cycle;Signal;HPM_P1;HPM_P2
2022/12/23 00:02:05;;;;;;;0.00;0.00;;;;;;;8.98;100.00;99370.31;6281559;22;20003;-79
2022/12/23 00:04:45;;;;;;;;;;;;;;;;;;;;;
2022/12/23 00:07:28;;;;;;;0.00;0.00;;;;;;;8.82;100.00;99353.22;6306632;22;20087;-78
2022/12/23 00:09:54;;;;;;;0.00;0.00;;;;;;;8.91;100.00;99359.72;6279667;22;20078;-77
2022/12/23 00:15:12;;;;;;;0.00;0.00;;;;;;;9.09;100.00;99365.63;6294222;22;20401;-79
2022/12/23 00:18:02;;;;;;;0.00;0.00;;;;;;;9.13;100.00;99369.41;6279578;22;20007;-77
2022/12/23 00:20:32;;;;;;;0.00;0.00;;;;;;;8.96;100.00;99333.53;6279753;22;20014;-81
2022/12/23 00:23:06;;;;;;;0.03;0.03;;;;;;;9.04;100.00;99357.47;6275357;22;20326;-79
2022/12/23 00:25:47;;;;;;;0.00;0.00;;;;;;;9.00;100.00;99348.22;6305397;22;20007;-79
2022/12/23 00:28:18;;;;;;;0.00;0.00;;;;;;;9.07;100.00;99363.16;6273824;22;20038;-77
2022/12/23 00:31:24;;;;;;;;;;;;;;;;;;;;;
2022/12/23 00:33:55;;;;;;;0.10;0.10;;;;;;;9.15;100.00;99402.66;6308686;22;20387;-78
2022/12/23 00:36:57;;;;;;;;;;;;;;;;;;;;;
2022/12/23 00:44:59;;;;;;;0.00;0.00;;;;;;;8.96;100.00;99393.50;6299005;22;20069;-77
2022/12/23 00:50:28;;;;;;;0.00;0.00;;;;;;;8.86;100.00;99386.19;6283142;22;20385;-79
2022/12/23 00:52:56;;;;;;;0.00;0.00;;;;;;;8.87;100.00;99366.81;6254086;22;20019;-78
2022/12/23 00:55:31;;;;;;;0.00;0.00;;;;;;;8.96;100.00;99369.78;6283580;22;20333;-77
2022/12/23 00:57:59;;;;;;;0.00;0.00;;;;;;;8.92;100.00;99357.78;6304114;22;20390;-78
2022/12/23 01:06:04;;;;;;;0.00;0.00;;;;;;;8.87;100.00;99328.66;6303593;22;20022;-80
2022/12/23 01:08:32;;;;;;;0.00;0.00;;;;;;;8.84;100.00;99326.50;6250147;22;20015;-80
2022/12/23 01:11:05;;;;;;;0.00;0.00;;;;;;;8.95;100.00;99345.50;6276699;22;20000;-78
2022/12/23 01:13:38;;;;;;;0.00;0.00;;;;;;;8.93;100.00;99342.25;6281287;22;20058;-79
2022/12/23 01:16:07;;;;;;;0.00;0.00;;;;;;;8.90;100.00;99330.81;6280879;22;20061;-80
2022/12/23 01:18:41;;;;;;;0.00;0.00;;;;;;;8.84;100.00;99304.69;6281837;22;20007;-81
2022/12/23 01:21:11;;;;;;;0.00;0.00;;;;;;;8.73;100.00;99275.84;6312828;22;20484;-80
2022/12/23 01:23:39;;;;;;;0.00;0.00;;;;;;;8.77;100.00;99282.38;6285162;22;20425;-80
2022/12/23 01:26:11;;;;;;;0.00;0.00;;;;;;;8.77;100.00;99271.47;6287034;22;20014;-78
2022/12/23 01:28:45;;;;;;;0.00;0.00;;;;;;;8.91;100.00;99299.72;6275868;22;20428;-77
2022/12/23 01:31:14;;;;;;;0.03;0.03;;;;;;;8.86;100.00;99302.50;6307588;22;20506;-77
2022/12/23 01:33:39;;;;;;;0.00;0.00;;;;;;;8.93;100.00;99312.28;6330485;22;20003;-77
2022/12/23 01:36:06;;;;;;;0.00;0.00;;;;;;;8.84;100.00;99301.94;6308152;22;20014;-76
2022/12/23 01:38:33;;;;;;;0.00;0.00;;;;;;;8.93;100.00;99312.28;6303010;22;19995;-76
2022/12/23 01:41:04;;;;;;;0.00;0.00;;;;;;;8.93;100.00;99301.38;6307998;22;20007;-76
2022/12/23 01:43:48;;;;;;;0.00;0.00;;;;;;;8.94;100.00;99303.81;6307829;22;20002;-76
2022/12/23 01:46:14;;;;;;;0.00;0.00;;;;;;;8.92;100.00;99300.53;6309702;22;20006;-78
2022/12/23 01:48:42;;;;;;;0.00;0.00;;;;;;;8.79;100.00;99290.25;6283993;22;20011;-77
2022/12/23 01:51:31;;;;;;;0.00;0.00;;;;;;;8.81;100.00;99302.53;6304759;22;20009;-76
2022/12/23 01:54:00;;;;;;;0.00;0.00;;;;;;;8.92;100.00;99335.97;6304365;22;20383;-77
2022/12/23 01:56:34;;;;;;;0.00;0.00;;;;;;;8.82;100.00;99317.78;6284272;22;20081;-75
2022/12/23 01:59:04;;;;;;;0.00;0.00;;;;;;;8.96;100.00;99338.97;6306121;22;20038;-76
2022/12/23 02:05:08;;;;;;;0.00;0.00;;;;;;;8.99;100.00;99336.47;6250414;22;20098;-76
2022/12/23 02:10:29;;;;;;;0.00;0.00;;;;;;;8.90;100.00;99314.44;6336479;22;20010;-77
2022/12/23 02:16:15;;;;;;;0.00;0.00;;;;;;;8.96;100.00;99317.16;6302972;22;20007;-76
2022/12/23 02:16:38;;;;;;;0.00;0.00;;;;;;;8.93;100.00;99306.81;6329589;22;20003;-77
2022/12/23 02:19:09;;;;;;;0.00;0.00;;;;;;;9.03;100.00;99323.13;6306037;22;20002;-77
2022/12/23 02:22:03;;;;;;;0.00;0.00;;;;;;;9.04;100.00;99324.75;6306283;22;20002;-77
2022/12/23 02:24:44;;;;;;;0.00;0.00;;;;;;;8.99;100.00;99316.59;6305036;22;20013;-79
2022/12/23 02:27:22;;;;;;;0.00;0.00;;;;;;;9.07;100.00;99329.63;6308355;22;20025;-78
2022/12/23 02:30:25;;;;;;;0.00;0.00;;;;;;;9.09;100.00;99311.06;6302224;22;20041;-78
2022/12/23 02:33:29;;;;;;;0.00;0.00;;;;;;;9.13;100.00;99328.50;6305104;22;19999;-77
2022/12/23 02:36:26;;;;;;;0.00;0.00;;;;;;;9.12;100.00;99326.88;6243446;22;20007;-77
2022/12/23 02:39:06;;;;;;;0.00;0.00;;;;;;;9.05;100.00;99320.91;6270104;22;20086;-80
2022/12/23 02:41:50;;;;;;;0.00;0.00;;;;;;;9.14;100.00;99324.69;6341355;22;19999;-80
2022/12/23 02:44:42;;;;;;;0.00;0.00;;;;;;;9.18;100.00;99331.19;6335933;22;20041;-79
2022/12/23 02:47:21;;;;;;;0.10;0.10;;;;;;;9.19;100.00;99332.81;6337604;22;20080;-80
2022/12/23 02:49:53;;;;;;;0.00;0.00;;;;;;;9.15;100.00;99309.13;6339464;22;19991;-79
2022/12/23 02:52:23;;;;;;;0.00;0.00;;;;;;;9.19;100.00;99311.00;6340131;22;20040;-78
2022/12/23 02:54:56;;;;;;;0.00;0.00;;;;;;;9.23;100.00;99313.97;6329318;22;19999;-78
2022/12/23 02:57:28;;;;;;;0.00;0.00;;;;;;;9.19;100.00;99308.28;6335707;22;20007;-80
2022/12/23 02:59:55;;;;;;;0.00;0.00;;;;;;;9.15;100.00;99315.38;6331978;22;20037;-77
2022/12/23 03:02:21;;;;;;;0.00;0.00;;;;;;;9.09;100.00;99306.41;6308199;22;20030;-78
2022/12/23 03:04:46;;;;;;;0.00;0.00;;;;;;;8.99;100.00;99294.78;6306834;22;20073;-76
2022/12/23 03:07:18;;;;;;;0.00;0.00;;;;;;;9.01;100.00;99303.47;6331414;22;20028;-77
2022/12/23 03:10:05;;;;;;;0.00;0.00;;;;;;;8.95;100.00;99297.28;6341177;22;20002;-78
2022/12/23 03:12:58;;;;;;;0.00;0.00;;;;;;;9.01;100.00;99303.47;6338972;22;20010;-78
2022/12/23 03:15:56;;;;;;;0.00;0.00;;;;;;;9.05;100.00;99293.63;6332736;22;20007;-77
2022/12/23 03:18:24;;;;;;;0.00;0.00;;;;;;;9.13;100.00;99301.22;6338308;22;20082;-78
2022/12/23 03:21:05;;;;;;;0.00;0.00;;;;;;;9.16;100.00;99295.19;6332289;22;20002;-77
2022/12/23 03:23:47;;;;;;;0.00;0.00;;;;;;;9.12;100.00;99287.88;6338270;22;20030;-78
2022/12/23 03:26:22;;;;;;;0.00;0.00;;;;;;;9.24;100.00;99294.59;6337520;22;20101;-77
2022/12/23 03:28:47;;;;;;;;;;;;;;;9.30;100.00;99278.19;6333117;22;20014;-79
2022/12/23 03:31:17;;;;;;;0.00;0.00;;;;;;;9.31;100.00;99279.81;6335803;22;19906;-76
2022/12/23 03:33:51;;;;;;;0.00;0.00;;;;;;;9.33;100.00;99274.88;6335525;22;19999;-78
2022/12/23 03:36:54;;;;;;;0.00;0.00;;;;;;;9.36;100.00;99263.38;6334980;22;20006;-77
2022/12/23 03:39:25;;;;;;;0.00;0.00;;;;;;;9.36;100.00;99244.28;6183040;23;20012;-78
2022/12/23 03:41:59;;;;;;;0.00;0.00;;;;;;;9.33;100.00;99228.50;6311525;22;20067;-77
2022/12/23 03:44:30;;;;;;;0.10;0.10;;;;;;;9.39;100.00;99216.47;6328424;22;20090;-75
2022/12/23 03:47:26;;;;;;;0.00;0.00;;;;;;;9.38;100.00;99203.91;6336283;22;20003;-77
2022/12/23 03:50:00;;;;;;;0.00;0.00;;;;;;;9.37;100.00;99207.72;6327602;22;20085;-78
2022/12/23 03:52:32;;;;;;;0.00;0.00;;;;;;;9.35;100.00;99209.94;6334568;22;20093;-77
2022/12/23 03:55:05;;;;;;;0.00;0.00;;;;;;;9.35;100.00;99209.94;6332379;22;20088;-77
2022/12/23 03:57:39;;;;;;;0.00;0.00;;;;;;;9.35;100.00;99196.31;6335389;22;20002;-77
2022/12/23 04:00:05;;;;;;;0.00;0.00;;;;;;;9.36;100.00;99178.81;6330958;22;19995;-77
2022/12/23 04:02:49;;;;;;;0.00;0.00;;;;;;;9.39;100.00;99189.19;6308475;22;20003;-78
2022/12/23 04:05:24;;;;;;;0.00;0.00;;;;;;;9.32;100.00;99191.44;6332754;22;20003;-78
2022/12/23 04:08:16;;;;;;;0.00;0.00;;;;;;;9.38;100.00;99203.91;6335705;22;20045;-77
2022/12/23 04:10:42;;;;;;;0.00;0.00;;;;;;;9.36;100.00;99189.72;6333933;22;20003;-78
2022/12/23 04:13:18;;;;;;;;;;;;;;;;;;;;;
2022/12/23 04:15:44;;;;;;;0.00;0.00;;;;;;;9.33;100.00;99185.69;6335681;22;20501;-78
2022/12/23 04:18:10;;;;;;;0.00;0.00;;;;;;;9.38;100.00;99193.00;6306928;22;20006;-78
2022/12/23 04:20:35;;;;;;;0.00;0.00;;;;;;;9.38;100.00;99176.63;6307046;22;20460;-78
2022/12/23 04:23:16;;;;;;;0.00;0.00;;;;;;;9.30;100.00;99149.97;6307592;22;20015;-77
2022/12/23 04:25:41;;;;;;;0.00;0.00;;;;;;;9.31;100.00;99151.59;6333274;22;20077;-76
2022/12/23 04:28:07;;;;;;;0.00;0.00;;;;;;;9.33;100.00;99141.19;6307219;22;20380;-78
2022/12/23 04:30:32;;;;;;;0.00;0.00;;;;;;;9.32;100.00;99134.13;6332852;22;20077;-77
2022/12/23 04:32:58;;;;;;;0.00;0.00;;;;;;;9.30;100.00;99119.94;6283127;22;20093;-78
2022/12/23 04:35:23;;;;;;;0.00;0.00;;;;;;;9.33;100.00;99130.28;6278639;22;20101;-77
2022/12/23 04:37:49;;;;;;;0.00;0.00;;;;;;;9.32;100.00;99128.69;6282167;22;20006;-77
2022/12/23 04:40:14;;;;;;;0.00;0.00;;;;;;;9.31;100.00;99118.84;6284177;22;20433;-77
2022/12/23 04:42:40;;;;;;;0.00;0.00;;;;;;;9.31;100.00;99111.47;6306473;22;20097;-77
2022/12/23 04:45:06;;;;;;;0.00;0.00;;;;;;;9.30;100.00;99101.69;6335613;22;20014;-78
2022/12/23 04:47:36;;;;;;;0.00;0.00;;;;;;;9.30;100.00;99109.03;6282513;22;20007;-78
2022/12/23 04:50:03;;;;;;;0.00;0.00;;;;;;;9.31;100.00;99103.28;6283248;22;20114;-77
2022/12/23 04:52:29;;;;;;;0.00;0.00;;;;;;;9.31;100.00;99105.22;6308088;22;20011;-78
2022/12/23 04:54:54;;;;;;;0.00;0.00;;;;;;;9.33;100.00;99100.28;6304956;22;20483;-77
2022/12/23 04:57:20;;;;;;;0.00;0.00;;;;;;;9.28;100.00;99078.53;6310873;22;20340;-76
2022/12/23 04:59:47;;;;;;;0.00;0.00;;;;;;;9.28;100.00;99056.69;6304769;22;21105;-77
2022/12/23 05:02:12;;;;;;;0.00;0.00;;;;;;;9.23;100.00;99044.75;6308952;22;20381;-78
2022/12/23 05:04:38;;;;;;;0.00;0.00;;;;;;;9.21;100.00;99035.22;6279640;22;19999;-77
2022/12/23 05:07:10;;;;;;;0.00;0.00;;;;;;;9.12;100.00;99020.59;6335833;22;20009;-77
2022/12/23 05:09:36;;;;;;;0.00;0.00;;;;;;;9.20;100.00;99028.13;6311417;22;20013;-77
2022/12/23 05:12:01;;;;;;;0.00;0.00;;;;;;;9.05;100.00;98999.13;6330486;22;20007;-77
2022/12/23 05:14:26;;;;;;;0.00;0.00;;;;;;;9.19;100.00;99021.88;6285185;22;20090;-77
2022/12/23 05:16:52;;;;;;;0.00;0.00;;;;;;;9.09;100.00;98994.72;6333067;22;20063;-77
2022/12/23 05:19:17;;;;;;;0.00;0.00;;;;;;;9.11;100.00;99005.34;6284183;22;20042;-77
2022/12/23 05:21:43;;;;;;;0.00;0.00;;;;;;;9.15;100.00;99015.38;6304302;22;20333;-76
2022/12/23 05:24:08;;;;;;;0.03;0.03;;;;;;;9.15;100.00;99015.38;6335002;22;20057;-77
2022/12/23 05:26:34;;;;;;;0.00;0.00;;;;;;;9.09;100.00;99008.34;6310649;22;20019;-77
2022/12/23 05:28:59;;;;;;;0.00;0.00;;;;;;;9.04;100.00;98995.59;6332037;22;20381;-77
2022/12/23 05:31:25;;;;;;;0.00;0.00;;;;;;;9.08;100.00;98993.91;6284215;22;20098;-77
2022/12/23 05:33:52;;;;;;;0.00;0.00;;;;;;;9.09;100.00;99000.19;6305802;22;20014;-77
2022/12/23 05:36:18;;;;;;;0.00;0.00;;;;;;;9.04;100.00;98989.34;6313315;22;20003;-77
2022/12/23 05:38:51;;;;;;;0.00;0.00;;;;;;;9.04;100.00;98981.16;6305920;22;20039;-77
2022/12/23 05:41:16;;;;;;;0.10;0.10;;;;;;;8.96;100.00;98965.44;6335870;22;20061;-76
2022/12/23 05:43:42;;;;;;;0.00;0.00;;;;;;;8.96;100.00;98960.00;6280953;22;20006;-76
2022/12/23 05:46:07;;;;;;;0.00;0.00;;;;;;;9.03;100.00;98957.72;6307870;22;20007;-76
2022/12/23 05:48:33;;;;;;;0.00;0.00;;;;;;;8.99;100.00;98968.38;6334762;22;20091;-77
2022/12/23 05:51:00;;;;;;;0.00;0.00;;;;;;;9.00;100.00;98966.50;6305778;22;20090;-77
2022/12/23 05:53:26;;;;;;;0.00;0.00;;;;;;;9.03;100.00;98942.16;6309728;22;20146;-76
2022/12/23 05:55:51;;;;;;;0.00;0.00;;;;;;;9.12;100.00;98939.59;6285175;22;20003;-73
2022/12/23 05:58:17;;;;;;;0.00;0.00;;;;;;;9.01;100.00;98928.03;6313358;22;20015;-75
2022/12/23 06:00:42;;;;;;;0.10;0.10;;;;;;;9.02;100.00;98917.91;6287164;22;20015;-76
2022/12/23 06:03:09;;;;;;;0.00;0.00;;;;;;;8.99;100.00;98923.97;6338452;22;20081;-74
2022/12/23 06:05:38;;;;;;;0.10;0.10;;;;;;;9.02;100.00;98928.81;6311759;22;20018;-73
2022/12/23 06:08:04;;;;;;;0.00;0.00;;;;;;;8.96;100.00;98913.63;6312024;22;20006;-76
2022/12/23 06:10:29;;;;;;;0.00;0.00;;;;;;;8.97;100.00;98894.25;6336871;22;20317;-76
2022/12/23 06:12:55;;;;;;;0.00;0.00;;;;;;;8.93;100.00;98892.41;6309998;22;20006;-76
2022/12/23 06:15:20;;;;;;;0.00;0.00;;;;;;;8.99;100.00;98892.03;6308111;22;20433;-75
2022/12/23 06:17:47;;;;;;;0.00;0.00;;;;;;;8.96;100.00;98883.66;6313813;22;20098;-76
2022/12/23 06:20:15;;;;;;;0.00;0.00;;;;;;;8.94;100.00;98883.13;6288181;22;20022;-76
2022/12/23 06:22:40;;;;;;;0.00;0.00;;;;;;;8.99;100.00;98883.06;6340012;22;20010;-76
2022/12/23 06:25:06;;;;;;;0.00;0.00;;;;;;;8.97;100.00;98877.09;6340832;22;20006;-76
2022/12/23 06:27:31;;;;;;;0.00;0.00;;;;;;;8.92;100.00;98861.59;6311975;22;20029;-77
2022/12/23 06:29:57;;;;;;;0.00;0.00;;;;;;;8.97;100.00;98849.84;6286924;22;20007;-76
2022/12/23 06:32:25;;;;;;;0.00;0.00;;;;;;;9.05;100.00;98858.16;6338520;22;20108;-76
2022/12/23 06:34:52;;;;;;;0.00;0.00;;;;;;;8.97;100.00;98834.28;6313417;22;20014;-75
2022/12/23 06:37:19;;;;;;;0.00;0.00;;;;;;;9.01;100.00;98826.31;6285186;22;20133;-75
2022/12/23 06:39:44;;;;;;;0.00;0.00;;;;;;;8.99;100.00;98815.69;6339942;22;19987;-76
2022/12/23 06:42:09;;;;;;;0.10;0.10;;;;;;;8.99;100.00;98812.16;6312228;22;20009;-76
2022/12/23 06:44:35;;;;;;;0.00;0.00;;;;;;;8.96;100.00;98788.22;6313900;22;20021;-76
2022/12/23 06:47:00;;;;;;;0.00;0.00;;;;;;;9.02;100.00;98795.22;6313458;22;20007;-77
2022/12/23 06:49:28;;;;;;;0.00;0.00;;;;;;;9.03;100.00;98783.22;6337201;22;20370;-74
2022/12/23 06:51:54;;;;;;;0.00;0.00;;;;;;;9.02;100.00;98767.94;6286029;22;20021;-76
2022/12/23 06:54:19;;;;;;;0.00;0.00;;;;;;;9.10;100.00;98775.47;6286819;22;20006;-75
2022/12/23 06:56:45;;;;;;;0.00;0.00;;;;;;;9.05;100.00;98764.63;6337896;22;20003;-77
2022/12/23 06:59:10;;;;;;;0.00;0.00;;;;;;;9.11;100.00;98774.34;6287318;22;20007;-77
2022/12/23 07:01:35;;;;;;;0.00;0.00;;;;;;;9.15;100.00;98780.03;6308604;22;20329;-76
2022/12/23 07:04:01;;;;;;;0.00;0.00;;;;;;;9.18;100.00;98771.25;6283737;22;20010;-76
2022/12/23 07:06:27;;;;;;;0.00;0.00;;;;;;;9.17;100.00;98770.44;6335451;22;20010;-77
2022/12/23 07:08:56;;;;;;;0.00;0.00;;;;;;;9.19;100.00;98768.22;6339984;22;20314;-76
2022/12/23 07:11:21;;;;;;;0.00;0.00;;;;;;;9.17;100.00;98756.00;6336368;22;20034;-77
2022/12/23 07:14:13;;;;;;;0.00;0.00;;;;;;;9.12;100.00;98765.06;6308915;22;20014;-80
2022/12/23 07:16:52;;;;;;;;;;;;;;;;;;;;;
2022/12/23 07:19:18;;;;;;;0.00;0.00;;;;;;;9.09;100.00;98749.31;6316209;22;20039;-77
2022/12/23 07:21:55;;;;;;;0.00;0.00;;;;;;;9.15;100.00;98744.56;6338045;22;20003;-83
2022/12/23 07:24:28;;;;;;;0.00;0.00;;;;;;;8.96;100.00;98720.88;6319308;22;20003;-80
2022/12/23 07:26:54;;;;;;;0.00;0.00;;;;;;;8.95;100.00;98726.63;6337625;22;20194;-77
2022/12/23 07:29:30;;;;;;;0.00;0.00;;;;;;;8.94;100.00;98719.56;6308795;22;20337;-78
2022/12/23 07:32:00;;;;;;;0.00;0.00;;;;;;;8.98;100.00;98720.56;6313482;22;20409;-77
2022/12/23 07:34:27;;;;;;;0.00;0.00;;;;;;;8.97;100.00;98713.53;6333883;22;20578;-76
2022/12/23 07:36:54;;;;;;;0.00;0.00;;;;;;;8.94;100.00;98709.47;6329859;22;20025;-76
2022/12/23 07:39:19;;;;;;;0.00;0.00;;;;;;;9.00;100.00;98708.25;6335122;22;20002;-78
2022/12/23 07:41:45;;;;;;;0.00;0.00;;;;;;;9.06;100.00;98700.81;6306070;22;20089;-78
2022/12/23 07:44:10;;;;;;;0.08;0.08;;;;;;;9.05;100.00;98693.75;6307722;22;20018;-79
2022/12/23 07:46:56;;;;;;;0.00;0.00;;;;;;;9.15;100.00;98703.69;6310507;22;20002;-79
2022/12/23 07:49:21;;;;;;;0.00;0.00;;;;;;;9.07;100.00;98699.72;6332081;22;20041;-80
2022/12/23 07:51:48;;;;;;;0.00;0.00;;;;;;;9.19;100.00;98710.94;6335217;22;20341;-79
2022/12/23 07:54:14;;;;;;;0.00;0.00;;;;;;;9.12;100.00;98688.72;6331897;22;19987;-78
2022/12/23 07:56:42;;;;;;;0.00;0.00;;;;;;;9.20;100.00;98674.41;6334991;22;20013;-78
2022/12/23 08:04:09;;;;;;;;;;;;;;;;;;;;;
2022/12/23 08:07:44;;;;;;;0.00;0.00;;;;;;;9.12;100.00;98656.00;6030184;23;20094;-77
2022/12/23 08:10:47;;;;;;;;;;;;;;;;;;;;;
2022/12/23 10:27:59;;;;;;;;;;;;;;;13.32;100.00;98724.25;5531357;22;15748377;-77
2022/12/23 10:31:16;;;;;;;;;;;;;;;;;;;;;
2022/12/23 10:34:07;;;;;;;;;;;;;;;;;;;;;
2022/12/23 10:43:22;;;;;;;0.10;0.10;;;;;;;18.84;100.00;98749.34;6119565;23;20419;-79
2022/12/23 10:46:30;;;;;;;;;;;;;;;;;;;;;
2022/12/23 10:49:36;;;;;;;0.00;0.00;;;;;;;17.52;100.00;98753.25;6252045;23;20111;-81
2022/12/23 11:53:22;;;;;;;;;;;;;;;;;;;;;
2022/12/23 11:56:45;;;;;;;;;;;;;;;;;;;;;
2022/12/23 12:00:19;;;;;;;;;;;;;;;;;;;;;
2022/12/23 12:06:38;;;;;;;;;;;;;;;;;;;;;
2022/12/23 12:09:10;;;;;;;0.00;0.00;;;;;;;15.00;100.00;98789.19;6005171;23;20095;-73
2022/12/23 12:12:04;;;;;;;0.00;0.00;;;;;;;15.73;100.00;98787.88;6221498;23;20043;-74
2022/12/23 12:15:06;;;;;;;0.00;0.00;;;;;;;17.25;100.00;98791.56;6202715;23;20027;-75
2022/12/23 12:17:43;;;;;;;0.00;0.00;;;;;;;16.52;100.00;98801.56;6214721;23;20070;-76
2022/12/23 12:20:24;;;;;;;0.00;0.00;;;;;;;15.79;100.00;98797.56;6238313;23;20579;-75
2022/12/23 12:23:26;;;;;;;;;;;;;;;;;;;;;
2022/12/23 12:30:15;;;;;;;0.00;0.00;;;;;;;14.27;100.00;98807.53;6112858;23;20027;-75
2022/12/23 12:33:05;;;;;;;;;;;;;;;;;;;;;
2022/12/23 12:36:14;;;;;;;0.00;0.00;;;;;;;14.23;100.00;98814.03;6181064;23;20108;-75
2022/12/23 12:38:47;;;;;;;0.00;0.00;;;;;;;14.26;100.00;98810.63;6169893;23;20004;-77
2022/12/23 12:42:08;;;;;;;0.00;0.00;;;;;;;14.30;100.00;98801.38;6182230;23;20363;-79
2022/12/23 12:44:51;;;;;;;0.00;0.00;;;;;;;14.06;98.78;98795.66;6179329;23;20745;-75
2022/12/23 12:47:27;;;;;;;0.00;0.00;;;;;;;13.89;100.00;98807.53;6175107;23;20084;-75
2022/12/23 12:50:03;;;;;;;0.00;0.00;;;;;;;14.28;100.00;98809.16;6180922;23;20087;-74
2022/12/23 12:52:37;;;;;;;0.00;0.00;;;;;;;14.65;100.00;98808.69;6176149;23;20440;-75
2022/12/23 12:55:06;;;;;;;;;;;;;;;14.48;99.05;98818.63;6182104;23;20001;-75
2022/12/23 12:57:43;;;;;;;0.00;0.00;;;;;;;14.06;100.00;98807.47;6178183;23;19910;-75
2022/12/23 13:00:18;;;;;;;0.00;0.00;;;;;;;13.83;100.00;98808.81;6181065;23;20001;-76
2022/12/23 13:03:05;;;;;;;0.00;0.00;;;;;;;13.44;100.00;98798.56;6175877;23;20238;-75
2022/12/23 13:06:12;;;;;;;0.00;0.00;;;;;;;12.77;100.00;98796.25;6180666;23;20371;-74
2022/12/23 13:08:53;;;;;;;0.00;0.00;;;;;;;12.30;100.00;98811.28;6179786;23;20435;-73
2022/12/23 13:11:37;;;;;;;0.00;0.00;;;;;;;11.81;100.00;98815.84;6174340;23;20005;-73
2022/12/23 13:15:02;;;;;;;0.00;0.00;;;;;;;11.44;100.00;98817.88;6178213;23;20027;-74
2022/12/23 13:17:32;;;;;;;0.00;0.00;;;;;;;11.43;100.00;98821.72;6149199;23;20024;-75
2022/12/23 13:20:09;;;;;;;0.00;0.00;;;;;;;11.33;100.00;98823.59;6123092;23;20012;-75
2022/12/23 13:22:42;;;;;;;0.00;0.00;;;;;;;11.26;100.00;98822.44;6160362;23;20028;-74
2022/12/23 13:25:24;;;;;;;0.00;0.00;;;;;;;11.50;100.00;98833.06;6182205;23;20076;-77
2022/12/23 13:27:52;;;;;;;0.00;0.00;;;;;;;12.00;100.00;98846.63;6186470;23;20025;-75
2022/12/23 13:30:22;;;;;;;0.00;0.00;;;;;;;12.35;100.00;98868.72;6206071;23;20616;-75
2022/12/23 13:33:32;;;;;;;0.00;0.00;;;;;;;11.80;100.00;98874.50;6202808;23;20011;-76
2022/12/23 13:36:54;;;;;;;0.08;0.08;;;;;;;11.41;100.00;98873.25;6173254;23;20008;-74
2022/12/23 13:39:42;;;;;;;0.00;0.00;;;;;;;11.05;100.00;98865.84;6087081;23;20353;-74
2022/12/23 13:42:15;;;;;;;0.00;0.00;;;;;;;10.77;100.00;98871.34;6117252;23;20016;-75
2022/12/23 13:44:47;;;;;;;0.00;0.00;;;;;;;10.63;100.00;98868.59;6175828;23;20004;-75
2022/12/23 13:47:43;;;;;;;0.00;0.00;;;;;;;10.58;100.00;98894.13;6162871;23;20000;-75
2022/12/23 13:50:44;;;;;;;0.00;0.00;;;;;;;12.54;100.00;98897.81;6208223;23;20007;-76
2022/12/23 13:53:56;;;;;;;0.00;0.00;;;;;;;13.85;100.00;98897.25;6205967;23;20016;-75
2022/12/23 13:56:46;;;;;;;0.05;0.05;;;;;;;14.18;100.00;98896.69;6202615;23;20407;-73
2022/12/23 13:59:14;;;;;;;0.00;0.00;;;;;;;14.29;100.00;98925.44;6209245;23;20001;-75
2022/12/23 14:01:39;;;;;;;0.00;0.00;;;;;;;14.16;97.54;98932.75;6205787;23;20011;-74
2022/12/23 14:04:29;;;;;;;0.00;0.00;;;;;;;14.19;100.00;98934.84;6209831;23;20391;-75
2022/12/23 14:06:58;;;;;;;0.00;0.00;;;;;;;14.68;100.00;98945.56;6204657;23;20009;-75
2022/12/23 14:09:37;;;;;;;0.00;0.00;;;;;;;15.33;95.60;98948.16;6210431;23;20004;-74
2022/12/23 14:12:17;;;;;;;0.00;0.00;;;;;;;14.51;95.98;98959.34;6208610;23;20072;-75
2022/12/23 14:15:12;;;;;;;0.00;0.00;;;;;;;14.22;100.00;98947.13;6203081;23;20005;-75
2022/12/23 14:18:05;;;;;;;0.00;0.00;;;;;;;15.68;98.06;98948.72;6210032;23;20083;-75
2022/12/23 14:20:46;;;;;;;0.00;0.00;;;;;;;17.45;92.68;98952.00;6209121;23;20428;-74
2022/12/23 14:23:52;;;;;;;0.00;0.00;;;;;;;18.85;89.65;98949.53;6207184;23;20001;-74
2022/12/23 14:26:32;;;;;;;0.00;0.00;;;;;;;19.00;87.91;98951.53;6200177;23;20004;-75
2022/12/23 14:29:14;;;;;;;0.00;0.00;;;;;;;17.52;85.27;98952.22;6207637;23;20119;-75
2022/12/23 14:31:43;;;;;;;0.00;0.00;;;;;;;16.38;93.48;98959.16;6209598;23;20400;-73
2022/12/23 14:34:18;;;;;;;0.00;0.00;;;;;;;16.39;91.04;98965.47;6210832;23;20060;-74
2022/12/23 14:37:26;;;;;;;0.00;0.00;;;;;;;15.80;90.58;98972.81;6211977;23;20009;-74
2022/12/23 14:39:57;;;;;;;0.00;0.00;;;;;;;14.71;89.42;98955.91;6210802;23;20024;-75
2022/12/23 14:42:40;;;;;;;0.00;0.00;;;;;;;13.50;94.46;98966.69;6205719;23;20009;-75
2022/12/23 14:45:32;;;;;;;0.00;0.00;;;;;;;12.59;99.32;98988.16;6211266;23;20031;-75
2022/12/23 14:47:58;;;;;;;0.00;0.00;;;;;;;11.80;100.00;98979.38;6212632;23;20012;-76
2022/12/23 14:50:40;;;;;;;0.00;0.00;;;;;;;11.48;100.00;98988.59;6209432;23;20038;-76
2022/12/23 14:53:55;;;;;;;;;;;;;;;;;;;;;
2022/12/23 14:56:38;;;;;;;0.00;0.00;;;;;;;11.31;100.00;98990.03;6211259;23;20095;-75
2022/12/23 14:59:06;;;;;;;0.00;0.00;;;;;;;11.40;100.00;99019.41;6208810;23;20455;-76
2022/12/23 15:01:50;;;;;;;0.00;0.00;;;;;;;11.43;100.00;99007.84;6204619;23;20008;-75
2022/12/23 15:08:08;;;;;;;;;;;;;;;;;;;;;
2022/12/23 15:10:39;;;;;;;0.00;0.00;;;;;;;11.70;100.00;99018.75;6070314;23;20094;-81
2022/12/23 15:13:46;;;;;;;;;;;;;;;;;;;;;
2022/12/23 15:16:58;;;;;;;0.00;0.00;;;;;;;11.63;100.00;99018.34;6094641;23;20062;-79
2022/12/23 15:26:44;;;;;;;;;;;;;;;;;;;;;
2022/12/23 15:40:00;;;;;;;0.00;0.00;;;;;;;9.68;100.00;99052.66;5882718;24;20044;-83
2022/12/23 15:42:57;;;;;;;0.00;0.00;;;;;;;9.61;100.00;99071.31;6142933;23;20012;-80
2022/12/23 15:45:46;;;;;;;0.00;0.00;;;;;;;9.49;100.00;99074.47;6100806;23;20017;-81
2022/12/23 15:49:08;;;;;;;0.00;0.00;;;;;;;9.29;100.00;99058.31;6187028;23;20009;-81
2022/12/23 15:55:55;;;;;;;0.00;0.00;;;;;;;9.28;100.00;99106.59;6026083;23;20042;-84
2022/12/23 15:58:35;;;;;;;0.00;0.00;;;;;;;9.11;100.00;99085.22;5984062;23;20090;-79
2022/12/23 16:01:31;;;;;;;;;;;;;;;;;;;;;
2022/12/23 16:04:28;;;;;;;0.00;0.00;;;;;;;9.12;100.00;99119.59;6188640;23;20474;-82
2022/12/23 16:11:07;;;;;;;;;;;;;;;;;;;;;
2022/12/23 16:13:33;;;;;;;0.08;0.08;;;;;;;9.30;100.00;99104.41;6175970;23;20638;-80
2022/12/23 16:16:35;;;;;;;0.00;0.00;;;;;;;9.56;100.00;99124.03;6184144;23;20095;-77
2022/12/23 16:19:03;;;;;;;0.00;0.00;;;;;;;9.61;100.00;99117.69;6182565;23;20008;-81
2022/12/23 16:21:34;;;;;;;0.00;0.00;;;;;;;9.47;100.00;99125.75;6155555;23;20013;-79
2022/12/23 16:24:03;;;;;;;0.00;0.00;;;;;;;9.34;100.00;99126.47;6182394;23;20091;-79
2022/12/23 16:26:28;;;;;;;0.00;0.00;;;;;;;9.18;100.00;99123.09;6184319;23;20024;-80
2022/12/23 16:28:59;;;;;;;0.00;0.00;;;;;;;9.15;100.00;99140.81;6155804;23;20013;-79
2022/12/23 16:31:27;;;;;;;0.00;0.00;;;;;;;9.06;100.00;99131.66;6195955;23;20055;-79
2022/12/23 16:34:12;;;;;;;0.00;0.00;;;;;;;8.96;100.00;99127.09;6207721;23;20004;-81
2022/12/23 16:36:38;;;;;;;0.00;0.00;;;;;;;8.91;100.00;99133.41;6186965;23;20009;-80
2022/12/23 16:39:40;;;;;;;0.00;0.00;;;;;;;8.83;100.00;99135.94;6207996;23;20378;-80
2022/12/23 16:50:04;;;;;;;0.00;0.00;;;;;;;8.62;100.00;99140.78;6033936;23;20030;-79
2022/12/23 16:53:05;;;;;;;0.00;0.00;;;;;;;8.62;100.00;99170.75;5977872;24;20004;-78
2022/12/23 16:55:53;;;;;;;0.00;0.00;;;;;;;8.52;100.00;99161.53;6044007;23;20430;-80
2022/12/23 17:02:41;;;;;;;;;;;;;;;;;;;;;
2022/12/23 17:08:31;;;;;;;0.03;0.03;;;;;;;8.49;100.00;99159.38;6012957;23;20039;-80
2022/12/23 17:12:14;;;;;;;;;;;;;;;;;;;;;
2022/12/23 17:15:02;;;;;;;0.00;0.00;;;;;;;8.41;100.00;99143.63;6120427;23;20067;-79
2022/12/23 17:17:44;;;;;;;0.10;0.10;;;;;;;8.31;100.00;99149.09;6124113;23;20001;-79
2022/12/23 17:20:42;;;;;;;;;;;;;;;;;;;;;
2022/12/23 17:23:18;;;;;;;;;;;;;;;;;;;;;
2022/12/23 17:30:19;;;;;;;0.10;0.10;;;;;;;8.17;100.00;99138.03;6114523;23;20449;-81
2022/12/23 17:33:33;;;;;;;;;;;;;;;;;;;;;
2022/12/23 17:37:24;;;;;;;;;;;;;;;;;;;;;
2022/12/23 17:39:58;;;;;;;;;;;;;;;;;;;;;
2022/12/23 17:50:00;;;;;;;;;;;;;;;;;;;;;
2022/12/23 17:56:58;;;;;;;;;;;;;;;;;;;;;
2022/12/23 18:21:44;;;;;;;;;;;;;;;;;;;;;
2022/12/23 18:23:50;;;;;;;;;;;;;;;;;;;;;
2022/12/23 18:26:16;;;;;;;0.00;0.00;;;;;;;7.93;100.00;99204.03;6011401;23;20160;-82
2022/12/23 18:28:43;;;;;;;0.00;0.00;;;;;;;7.86;100.00;99198.09;5963049;23;20008;-83